createdAt,value
2018-11-29T00:02:50.604Z,48.10
2018-11-29T00:05:54.622Z,53.30
2018-11-29T00:08:58.728Z,45.40
2018-11-29T00:12:02.724Z,50.83
2018-11-29T00:15:09.859Z,47.97
2018-11-29T00:18:13.863Z,46.33
2018-11-29T00:21:17.868Z,41.73
2018-11-29T00:24:21.874Z,50.93
2018-11-29T00:27:25.879Z,50.03
2018-11-29T00:30:29.903Z,49.40
2018-11-29T00:33:33.920Z,52.10
2018-11-29T00:36:38.014Z,49.10
2018-11-29T00:39:42.024Z,48.43
2018-11-29T00:42:46.046Z,55.67
2018-11-29T00:45:50.054Z,46.27
2018-11-29T00:48:54.063Z,48.73
2018-11-29T00:51:58.058Z,46.90
2018-11-29T00:55:02.083Z,49.80
2018-11-29T00:58:06.104Z,46.70
2018-11-29T01:01:10.115Z,52.00
2018-11-29T01:04:14.123Z,50.90
2018-11-29T01:07:18.122Z,53.30
2018-11-29T01:10:22.134Z,52.30
2018-11-29T01:13:26.142Z,51.43
2018-11-29T01:16:30.144Z,48.27
2018-11-29T01:19:34.161Z,54.40
2018-11-29T01:22:38.173Z,51.93
2018-11-29T01:25:42.174Z,51.87
2018-11-29T01:28:46.177Z,48.67
2018-11-29T01:31:50.181Z,49.20
2018-11-29T01:34:54.202Z,49.57
2018-11-29T01:37:58.207Z,50.83
2018-11-29T01:41:02.217Z,49.07
2018-11-29T01:44:06.596Z,49.23
2018-11-29T01:47:10.589Z,48.80
2018-11-29T01:50:14.599Z,51.40
2018-11-29T01:53:18.629Z,48.90
2018-11-29T01:56:22.622Z,50.23
2018-11-29T01:59:26.626Z,54.50
2018-11-29T02:02:30.623Z,51.77
2018-11-29T02:05:34.631Z,55.30
2018-11-29T02:08:38.638Z,58.63
2018-11-29T02:11:42.626Z,53.10
2018-11-29T02:14:46.641Z,50.13
2018-11-29T02:17:50.784Z,51.10
2018-11-29T02:20:54.776Z,48.37
2018-11-29T02:23:58.785Z,51.20
2018-11-29T02:27:02.792Z,53.70
2018-11-29T02:30:10.162Z,53.37
2018-11-29T02:33:14.164Z,50.40
2018-11-29T02:36:18.178Z,50.73
2018-11-29T04:44:01.408Z,54.87
2018-11-29T04:47:05.499Z,49.63
2018-11-29T04:50:09.498Z,45.33
2018-11-29T04:53:13.525Z,46.85
2018-11-29T04:56:17.541Z,50.80
2018-11-29T04:59:21.611Z,49.88
2018-11-29T05:02:25.648Z,51.27
2018-11-29T05:05:29.638Z,53.57
2018-11-29T05:08:33.651Z,47.70
2018-11-29T05:11:38.003Z,52.63
2018-11-29T05:14:41.987Z,56.47
2018-11-29T05:17:46.015Z,50.30
2018-11-29T05:20:50.014Z,47.80
2018-11-29T05:23:54.043Z,45.60
2018-11-29T05:26:58.068Z,49.50
2018-11-29T05:30:02.083Z,55.43
2018-11-29T05:33:06.100Z,47.57
2018-11-29T05:36:10.211Z,57.70
2018-11-29T05:39:14.770Z,49.87
2018-11-29T05:42:19.172Z,48.30
2018-11-29T05:45:23.830Z,56.40
2018-11-29T05:48:28.015Z,57.13
2018-11-29T05:51:32.031Z,44.07
2018-11-29T05:54:36.055Z,51.53
2018-11-29T05:57:40.067Z,43.90
2018-11-29T06:00:44.184Z,42.60
2018-11-29T06:03:48.195Z,47.07
2018-11-29T06:06:52.226Z,45.97
2018-11-29T06:09:56.278Z,44.43
2018-11-29T06:13:00.280Z,42.97
2018-11-29T06:16:04.363Z,46.60
2018-11-29T06:19:09.576Z,47.70
2018-11-29T06:22:13.600Z,41.63
2018-11-29T06:25:17.691Z,47.07
2018-11-29T06:28:21.733Z,41.37
2018-11-29T06:31:25.983Z,42.33
2018-11-29T06:34:29.999Z,43.23
2018-11-29T06:37:34.484Z,41.83
2018-11-29T06:40:38.482Z,44.93
2018-11-29T06:43:42.481Z,45.97
2018-11-29T06:46:46.469Z,41.73
2018-11-29T06:49:50.755Z,44.43
2018-11-29T06:52:55.162Z,36.00
2018-11-29T06:55:59.171Z,41.40
2018-11-29T06:59:03.366Z,38.77
2018-11-29T07:02:07.450Z,37.97
2018-11-29T07:05:11.571Z,36.73
2018-11-29T07:08:15.576Z,33.93
2018-11-29T07:11:19.587Z,36.63
2018-11-29T07:14:23.595Z,35.38
2018-11-29T07:17:27.630Z,32.78
2018-11-29T07:20:31.600Z,33.53
2018-11-29T07:23:35.602Z,34.03
2018-11-29T07:26:39.738Z,30.47
2018-11-29T07:29:43.746Z,33.67
2018-11-29T07:32:47.779Z,28.00
2018-11-29T07:35:51.770Z,27.47
2018-11-29T07:38:55.790Z,28.43
2018-11-29T07:41:59.790Z,27.80
2018-11-29T07:45:04.178Z,27.33
2018-11-29T07:48:08.178Z,24.50
2018-11-29T07:51:12.182Z,28.40
2018-11-29T07:54:16.305Z,26.93
2018-11-29T07:57:20.431Z,26.20
2018-11-29T08:00:24.394Z,24.93
2018-11-29T08:03:28.421Z,30.90
2018-11-29T08:06:32.406Z,29.40
2018-11-29T08:09:37.186Z,30.55
2018-11-29T08:12:41.192Z,25.90
2018-11-29T08:15:45.215Z,29.37
2018-11-29T08:18:49.198Z,23.70
2018-11-29T08:21:53.210Z,28.23
2018-11-29T08:24:57.354Z,24.83
2018-11-29T08:28:01.358Z,28.13
2018-11-29T08:31:05.594Z,25.90
2018-11-29T08:34:09.598Z,24.20
2018-11-29T08:37:13.621Z,31.80
2018-11-29T08:40:18.777Z,26.82
2018-11-29T08:43:22.816Z,26.87
2018-11-29T08:46:26.792Z,28.83
2018-11-29T08:49:30.792Z,32.23
2018-11-29T08:52:34.807Z,27.30
2018-11-29T08:55:38.794Z,25.00
2018-11-29T08:58:42.794Z,30.67
2018-11-29T09:01:46.798Z,28.70
2018-11-29T09:04:50.817Z,29.23
2018-11-29T09:07:54.840Z,27.80
2018-11-29T09:10:58.841Z,27.47
2018-11-29T09:14:03.471Z,29.70
2018-11-29T09:17:07.572Z,30.80
2018-11-29T09:20:13.510Z,25.07
2018-11-29T09:23:17.519Z,31.57
2018-11-29T09:26:21.555Z,28.27
2018-11-29T09:29:25.678Z,28.10
2018-11-29T09:32:29.663Z,23.63
2018-11-29T09:35:33.790Z,24.90
2018-11-29T09:38:37.986Z,29.53
2018-11-29T09:41:41.986Z,27.43
2018-11-29T09:44:46.012Z,28.47
2018-11-29T09:47:51.091Z,26.97
2018-11-29T09:50:55.098Z,27.70
2018-11-29T09:53:59.268Z,27.40
2018-11-29T09:57:03.268Z,27.10
2018-11-29T10:00:19.586Z,26.33
2018-11-29T10:03:23.702Z,28.33
2018-11-29T10:06:27.711Z,26.00
2018-11-29T10:09:31.714Z,30.37
2018-11-29T10:12:35.738Z,25.00
2018-11-29T10:15:39.739Z,28.77
2018-11-29T10:18:44.335Z,28.63
2018-11-29T10:21:48.330Z,26.80
2018-11-29T10:24:52.336Z,25.20
2018-11-29T10:27:58.106Z,26.23
2018-11-29T10:31:02.946Z,24.90
2018-11-29T10:34:07.001Z,25.10
2018-11-29T10:37:11.065Z,23.60
2018-11-29T10:40:15.110Z,28.37
2018-11-29T10:43:19.101Z,25.13
2018-11-29T10:46:24.094Z,22.77
2018-11-29T10:49:28.118Z,25.50
2018-11-29T10:52:32.180Z,27.13
2018-11-29T10:55:36.177Z,25.13
2018-11-29T10:58:40.178Z,23.50
2018-11-29T11:01:49.483Z,24.50
2018-11-29T11:04:53.507Z,22.77
2018-11-29T11:07:58.008Z,23.93
2018-11-29T11:11:05.962Z,24.60
2018-11-29T11:14:09.958Z,23.30
2018-11-29T11:17:15.110Z,22.50
2018-11-29T11:20:19.149Z,25.70
2018-11-29T11:23:23.143Z,24.00
2018-11-29T11:26:27.203Z,19.90
2018-11-29T11:29:31.163Z,25.67
2018-11-29T11:32:35.206Z,23.90
2018-11-29T11:35:39.204Z,23.10
2018-11-29T11:38:43.222Z,22.93
2018-11-29T11:41:47.205Z,21.20
2018-11-29T11:44:51.219Z,22.37
2018-11-29T11:47:55.253Z,23.20
2018-11-29T11:50:59.255Z,20.83
2018-11-29T11:54:03.256Z,18.97
2018-11-29T11:57:07.250Z,17.30
2018-11-29T12:00:15.451Z,19.73
2018-11-29T12:03:19.458Z,17.00
2018-11-29T12:06:23.478Z,23.27
2018-11-29T12:09:27.478Z,33.73
2018-11-29T12:12:31.488Z,24.23
2018-11-29T12:15:36.138Z,19.50
2018-11-29T12:18:40.153Z,20.20
2018-11-29T12:21:44.155Z,19.67
2018-11-29T12:24:48.229Z,16.97
2018-11-29T12:27:52.544Z,18.70
2018-11-29T12:30:56.535Z,17.90
2018-11-29T12:34:00.541Z,17.90
2018-11-29T12:37:04.746Z,17.77
2018-11-29T12:40:11.130Z,18.57
2018-11-29T12:43:15.126Z,17.93
2018-11-29T12:46:19.130Z,19.40
2018-11-29T12:49:23.119Z,21.80
2018-11-29T12:52:27.116Z,18.43
2018-11-29T12:55:31.131Z,19.40
2018-11-29T12:58:35.159Z,16.27
2018-11-29T13:01:39.170Z,19.37
2018-11-29T13:04:43.180Z,15.13
2018-11-29T13:07:47.166Z,17.87
2018-11-29T13:10:51.366Z,17.40
2018-11-29T13:13:55.409Z,19.30
2018-11-29T13:16:59.365Z,18.70
2018-11-29T13:20:03.419Z,17.63
2018-11-29T13:23:07.426Z,18.53
2018-11-29T13:26:11.435Z,18.40
2018-11-29T13:29:15.876Z,15.23
2018-11-29T13:32:20.118Z,17.13
2018-11-29T13:35:25.423Z,16.73
2018-11-29T13:38:29.440Z,19.20
2018-11-29T13:41:33.446Z,14.60
2018-11-29T13:44:37.442Z,17.90
2018-11-29T13:47:41.713Z,17.33
2018-11-29T13:50:45.713Z,18.60
2018-11-29T13:53:49.708Z,15.87
2018-11-29T13:56:53.711Z,15.47
2018-11-29T13:59:57.701Z,15.27
2018-11-29T14:03:04.732Z,17.30
2018-11-29T14:06:08.738Z,15.10
2018-11-29T14:09:12.741Z,21.67
2018-11-29T14:12:16.777Z,17.37
2018-11-29T14:15:23.048Z,20.83
2018-11-29T14:18:27.058Z,17.83
2018-11-29T14:21:32.059Z,18.50
2018-11-29T14:24:36.051Z,17.43
2018-11-29T14:27:40.639Z,20.37
2018-11-29T14:30:44.628Z,17.93
2018-11-29T14:33:48.630Z,17.70
2018-11-29T14:36:52.623Z,15.80
2018-11-29T14:39:56.635Z,15.87
2018-11-29T14:43:00.646Z,17.33
2018-11-29T14:46:04.910Z,16.40
2018-11-29T14:49:08.917Z,15.07
2018-11-29T14:52:12.918Z,14.23
2018-11-29T14:55:16.908Z,13.97
2018-11-29T14:58:20.915Z,16.03
2018-11-29T15:01:24.906Z,18.40
2018-11-29T15:04:29.021Z,16.70
2018-11-29T15:07:33.022Z,23.40
2018-11-29T15:10:37.754Z,16.63
2018-11-29T15:13:41.758Z,15.77
2018-11-29T15:16:45.770Z,19.80
2018-11-29T15:19:49.766Z,17.67
2018-11-29T15:22:53.797Z,18.80
2018-11-29T15:25:57.803Z,16.67
2018-11-29T15:29:01.918Z,16.13
2018-11-29T15:32:06.019Z,12.40
2018-11-29T15:35:10.030Z,18.13
2018-11-29T15:38:14.062Z,18.73
2018-11-29T15:41:18.273Z,15.10
2018-11-29T15:44:22.130Z,14.93
2018-11-29T15:47:26.146Z,17.70
2018-11-29T15:50:30.158Z,17.10
2018-11-29T15:53:34.173Z,17.67
2018-11-29T15:56:38.180Z,19.10
2018-11-29T15:59:42.194Z,14.47
2018-11-29T16:02:47.238Z,19.07
2018-11-29T16:05:51.272Z,15.70
2018-11-29T16:08:55.644Z,12.20
2018-11-29T16:11:59.693Z,15.93
2018-11-29T16:15:03.752Z,16.77
2018-11-29T16:18:07.755Z,15.30
2018-11-29T16:21:11.784Z,17.10
2018-11-29T16:24:16.247Z,16.20
2018-11-29T16:27:20.311Z,15.90
2018-11-29T16:30:57.731Z,15.33
2018-11-29T16:34:01.895Z,17.20
2018-11-29T16:37:06.386Z,15.53
2018-11-29T16:40:10.466Z,13.40
2018-11-29T16:43:14.477Z,13.17
2018-11-29T16:46:18.527Z,14.23
2018-11-29T16:49:22.598Z,19.30
2018-11-29T16:52:26.964Z,19.80
2018-11-29T16:55:30.974Z,15.03
2018-11-29T16:58:35.974Z,12.43
2018-11-29T17:01:40.626Z,12.47
2018-11-29T17:04:44.702Z,19.07
2018-11-29T17:07:48.844Z,15.27
2018-11-29T17:10:52.840Z,16.33
2018-11-29T17:13:57.860Z,15.33
2018-11-29T17:17:01.888Z,15.33
2018-11-29T17:20:09.323Z,15.43
2018-11-29T17:23:13.501Z,15.40
2018-11-29T17:26:17.478Z,17.73
2018-11-29T17:29:21.579Z,19.37
2018-11-29T17:32:25.571Z,14.53
2018-11-29T17:35:29.577Z,16.70
2018-11-29T17:38:33.607Z,14.73
2018-11-29T17:41:38.050Z,14.47
2018-11-29T17:44:42.167Z,14.67
2018-11-29T17:47:46.358Z,16.00
2018-11-29T17:50:50.388Z,14.03
2018-11-29T17:53:54.461Z,14.60
2018-11-29T17:56:58.474Z,16.27
2018-11-29T18:00:02.652Z,16.47
2018-11-29T18:03:07.491Z,14.63
2018-11-29T18:06:11.596Z,20.33
2018-11-29T18:09:16.443Z,15.67
2018-11-29T18:12:20.446Z,19.97
2018-11-29T18:15:26.063Z,19.47
2018-11-29T18:18:30.073Z,17.77
2018-11-29T18:21:34.075Z,14.83
2018-11-29T18:24:38.084Z,18.20
2018-11-29T18:27:44.544Z,18.57
2018-11-29T18:30:48.551Z,19.30
2018-11-29T18:33:52.546Z,19.57
2018-11-29T18:36:56.566Z,19.30
2018-11-29T18:40:00.570Z,21.67
2018-11-29T18:43:05.849Z,19.60
2018-11-29T18:46:09.867Z,21.93
2018-11-29T18:49:13.868Z,17.80
2018-11-29T18:52:17.884Z,16.00
2018-11-29T18:55:25.599Z,19.50
2018-11-29T18:58:29.599Z,18.60
2018-11-29T19:01:33.637Z,17.83
2018-11-29T19:04:37.638Z,19.53
2018-11-29T19:07:42.052Z,19.70
2018-11-29T19:10:45.998Z,20.30
2018-11-29T19:13:49.992Z,22.37
2018-11-29T19:16:54.002Z,17.67
2018-11-29T19:19:58.051Z,18.70
2018-11-29T19:23:02.054Z,17.97
2018-11-29T19:26:06.827Z,26.00
2018-11-29T19:29:10.765Z,16.40
2018-11-29T19:32:14.770Z,23.23
2018-11-29T19:35:18.785Z,22.50
2018-11-29T19:38:22.782Z,19.30
2018-11-29T19:41:26.799Z,18.90
2018-11-29T19:44:30.787Z,19.80
2018-11-29T19:47:34.803Z,20.97
2018-11-29T19:50:38.819Z,18.73
2018-11-29T19:53:42.826Z,21.23
2018-11-29T19:56:46.821Z,21.23
2018-11-29T19:59:50.838Z,20.00
2018-11-29T20:02:55.764Z,19.70
2018-11-29T20:05:59.775Z,22.10
2018-11-29T20:09:04.394Z,21.07
2018-11-29T20:12:08.394Z,19.90
2018-11-29T20:15:16.886Z,17.63
2018-11-29T20:18:20.887Z,20.30
2018-11-29T20:21:25.519Z,21.63
2018-11-29T20:24:29.554Z,22.10
2018-11-29T20:27:33.563Z,19.90
2018-11-29T20:30:37.563Z,22.37
2018-11-29T20:33:41.570Z,19.90
2018-11-29T20:36:45.568Z,20.53
2018-11-29T20:39:49.582Z,20.43
2018-11-29T20:42:54.899Z,21.03
2018-11-29T20:45:58.886Z,23.43
2018-11-29T20:49:02.899Z,23.53
2018-11-29T20:52:07.021Z,23.30
2018-11-29T20:55:20.078Z,24.37
2018-11-29T20:58:24.136Z,22.43
2018-11-29T21:01:28.138Z,22.60
2018-11-29T21:04:32.193Z,20.77
2018-11-29T21:07:37.266Z,23.67
2018-11-29T21:10:41.279Z,21.20
2018-11-29T21:13:45.286Z,19.50
2018-11-29T21:16:49.876Z,22.47
2018-11-29T21:19:53.893Z,21.40
2018-11-29T21:22:57.921Z,22.37
2018-11-29T21:26:01.943Z,20.67
2018-11-29T21:29:05.981Z,23.30
2018-11-29T21:32:09.959Z,19.57
2018-11-29T21:35:16.260Z,24.73
2018-11-29T21:38:21.179Z,20.30
2018-11-29T21:41:25.329Z,25.30
2018-11-29T21:44:29.385Z,24.70
2018-11-29T21:47:33.389Z,23.47
2018-11-29T21:50:37.414Z,23.87
2018-11-29T21:53:41.436Z,21.90
2018-11-29T21:56:45.438Z,26.27
2018-11-29T21:59:49.454Z,25.33
2018-11-29T22:02:57.318Z,24.00
2018-11-29T22:06:01.344Z,26.50
2018-11-29T22:09:06.567Z,25.10
2018-11-29T22:12:10.631Z,22.23
2018-11-29T22:15:14.642Z,24.90
2018-11-29T22:18:20.671Z,22.43
2018-11-29T22:21:24.677Z,22.60
2018-11-29T22:24:28.722Z,23.07
2018-11-29T22:27:32.742Z,24.70
2018-11-29T22:30:36.767Z,24.60
2018-11-29T22:33:40.786Z,23.87
2018-11-29T22:36:44.817Z,25.23
2018-11-29T22:39:48.850Z,23.90
2018-11-29T22:42:52.871Z,27.87
2018-11-29T22:45:56.914Z,20.83
2018-11-29T22:49:00.943Z,26.50
2018-11-29T22:52:05.231Z,25.50
2018-11-29T22:55:09.249Z,23.27
2018-11-29T22:58:13.247Z,25.47
2018-11-29T23:01:22.839Z,26.10
2018-11-29T23:04:26.834Z,25.83
2018-11-29T23:07:30.858Z,26.93
2018-11-29T23:10:34.886Z,25.03
2018-11-29T23:13:38.885Z,30.33
2018-11-29T23:16:42.898Z,27.40
2018-11-29T23:19:46.897Z,29.33
2018-11-29T23:22:50.910Z,28.30
2018-11-29T23:25:54.933Z,27.27
2018-11-29T23:28:58.929Z,28.93
2018-11-29T23:32:02.954Z,27.13
2018-11-29T23:35:06.967Z,26.63
2018-11-29T23:38:10.988Z,24.53
2018-11-29T23:41:15.014Z,27.57
2018-11-29T23:44:19.006Z,24.07
2018-11-29T23:47:23.022Z,24.20
2018-11-29T23:50:27.092Z,31.10
2018-11-29T23:53:31.095Z,28.20
2018-11-29T23:56:35.103Z,27.47
2018-11-29T23:59:39.103Z,33.67
